sensor_id;sensor_type;location;lat;lon;timestamp;P1;durP1;ratioP1;P2;durP2;ratioP2
32329;SDS011;18807;52.434;13.238;2023-02-18T00:04:44;12.10;;;2.13;;
32329;SDS011;18807;52.434;13.238;2023-02-18T00:12:18;20.02;;;2.08;;
32329;SDS011;18807;52.434;13.238;2023-02-18T00:19:53;9.43;;;2.07;;
32329;SDS011;18807;52.434;13.238;2023-02-18T00:27:28;18.83;;;2.55;;
32329;SDS011;18807;52.434;13.238;2023-02-18T00:35:21;8.95;;;2.08;;
32329;SDS011;18807;52.434;13.238;2023-02-18T00:42:55;10.65;;;1.58;;
32329;SDS011;18807;52.434;13.238;2023-02-18T00:50:30;12.13;;;2.03;;
32329;SDS011;18807;52.434;13.238;2023-02-18T00:58:04;11.75;;;1.80;;
32329;SDS011;18807;52.434;13.238;2023-02-18T01:05:40;18.27;;;2.40;;
32329;SDS011;18807;52.434;13.238;2023-02-18T01:13:15;14.13;;;3.00;;
32329;SDS011;18807;52.434;13.238;2023-02-18T01:20:50;5.50;;;1.60;;
32329;SDS011;18807;52.434;13.238;2023-02-18T01:28:24;6.47;;;1.77;;
32329;SDS011;18807;52.434;13.238;2023-02-18T01:36:00;17.10;;;1.95;;
32329;SDS011;18807;52.434;13.238;2023-02-18T01:43:35;11.80;;;2.13;;
32329;SDS011;18807;52.434;13.238;2023-02-18T01:51:12;10.88;;;1.58;;
32329;SDS011;18807;52.434;13.238;2023-02-18T01:58:49;6.80;;;1.20;;
32329;SDS011;18807;52.434;13.238;2023-02-18T02:06:28;19.35;;;1.70;;
32329;SDS011;18807;52.434;13.238;2023-02-18T02:14:06;8.65;;;1.98;;
32329;SDS011;18807;52.434;13.238;2023-02-18T02:22:12;7.55;;;1.73;;
32329;SDS011;18807;52.434;13.238;2023-02-18T02:30:22;11.25;;;2.05;;
32329;SDS011;18807;52.434;13.238;2023-02-18T02:38:14;6.68;;;1.20;;
32329;SDS011;18807;52.434;13.238;2023-02-18T02:45:57;9.15;;;1.42;;
32329;SDS011;18807;52.434;13.238;2023-02-18T02:53:37;8.35;;;1.00;;
32329;SDS011;18807;52.434;13.238;2023-02-18T03:01:17;6.95;;;1.70;;
32329;SDS011;18807;52.434;13.238;2023-02-18T03:09:02;7.72;;;1.73;;
32329;SDS011;18807;52.434;13.238;2023-02-18T03:16:44;9.13;;;1.33;;
32329;SDS011;18807;52.434;13.238;2023-02-18T03:24:24;8.57;;;1.05;;
32329;SDS011;18807;52.434;13.238;2023-02-18T03:32:02;6.63;;;0.85;;
32329;SDS011;18807;52.434;13.238;2023-02-18T03:39:43;5.75;;;1.02;;
32329;SDS011;18807;52.434;13.238;2023-02-18T03:47:21;7.43;;;1.35;;
32329;SDS011;18807;52.434;13.238;2023-02-18T03:54:57;5.47;;;1.33;;
32329;SDS011;18807;52.434;13.238;2023-02-18T04:02:31;7.75;;;0.98;;
32329;SDS011;18807;52.434;13.238;2023-02-18T04:10:08;5.28;;;0.90;;
32329;SDS011;18807;52.434;13.238;2023-02-18T04:17:42;6.88;;;1.10;;
32329;SDS011;18807;52.434;13.238;2023-02-18T04:25:18;3.83;;;1.00;;
32329;SDS011;18807;52.434;13.238;2023-02-18T04:32:52;3.92;;;0.75;;
32329;SDS011;18807;52.434;13.238;2023-02-18T04:40:27;4.60;;;0.93;;
32329;SDS011;18807;52.434;13.238;2023-02-18T04:48:02;5.40;;;1.15;;
32329;SDS011;18807;52.434;13.238;2023-02-18T04:55:38;6.03;;;0.80;;
32329;SDS011;18807;52.434;13.238;2023-02-18T05:03:12;8.05;;;1.00;;
32329;SDS011;18807;52.434;13.238;2023-02-18T05:10:48;6.53;;;1.10;;
32329;SDS011;18807;52.434;13.238;2023-02-18T05:18:22;4.10;;;0.90;;
32329;SDS011;18807;52.434;13.238;2023-02-18T05:25:58;5.17;;;1.17;;
32329;SDS011;18807;52.434;13.238;2023-02-18T05:33:32;4.82;;;0.88;;
32329;SDS011;18807;52.434;13.238;2023-02-18T05:41:07;6.30;;;0.90;;
32329;SDS011;18807;52.434;13.238;2023-02-18T05:48:41;4.07;;;1.08;;
32329;SDS011;18807;52.434;13.238;2023-02-18T05:56:17;2.80;;;0.77;;
32329;SDS011;18807;52.434;13.238;2023-02-18T06:03:51;7.43;;;2.15;;
32329;SDS011;18807;52.434;13.238;2023-02-18T06:11:43;4.88;;;1.20;;
32329;SDS011;18807;52.434;13.238;2023-02-18T06:19:17;4.72;;;0.60;;
32329;SDS011;18807;52.434;13.238;2023-02-18T06:26:54;7.80;;;0.70;;
32329;SDS011;18807;52.434;13.238;2023-02-18T06:34:28;5.68;;;0.60;;
32329;SDS011;18807;52.434;13.238;2023-02-18T06:42:03;5.53;;;0.70;;
32329;SDS011;18807;52.434;13.238;2023-02-18T06:49:37;5.63;;;0.93;;
32329;SDS011;18807;52.434;13.238;2023-02-18T06:57:13;2.70;;;0.50;;
32329;SDS011;18807;52.434;13.238;2023-02-18T07:04:47;3.08;;;0.60;;
32329;SDS011;18807;52.434;13.238;2023-02-18T07:12:23;5.57;;;0.67;;
32329;SDS011;18807;52.434;13.238;2023-02-18T07:19:57;8.38;;;1.75;;
32329;SDS011;18807;52.434;13.238;2023-02-18T07:27:33;4.30;;;0.82;;
32329;SDS011;18807;52.434;13.238;2023-02-18T07:35:07;3.97;;;0.80;;
32329;SDS011;18807;52.434;13.238;2023-02-18T07:42:44;7.40;;;0.77;;
32329;SDS011;18807;52.434;13.238;2023-02-18T07:50:18;8.68;;;2.00;;
32329;SDS011;18807;52.434;13.238;2023-02-18T07:57:54;5.40;;;0.93;;
32329;SDS011;18807;52.434;13.238;2023-02-18T08:05:32;4.95;;;0.90;;
32329;SDS011;18807;52.434;13.238;2023-02-18T08:13:07;5.73;;;0.83;;
32329;SDS011;18807;52.434;13.238;2023-02-18T08:20:41;2.67;;;0.85;;
32329;SDS011;18807;52.434;13.238;2023-02-18T08:28:17;5.03;;;0.50;;
32329;SDS011;18807;52.434;13.238;2023-02-18T08:35:52;5.43;;;0.73;;
32329;SDS011;18807;52.434;13.238;2023-02-18T08:43:29;5.80;;;0.93;;
32329;SDS011;18807;52.434;13.238;2023-02-18T08:51:09;6.38;;;0.73;;
32329;SDS011;18807;52.434;13.238;2023-02-18T08:58:46;3.70;;;0.68;;
32329;SDS011;18807;52.434;13.238;2023-02-18T09:06:20;4.32;;;1.33;;
32329;SDS011;18807;52.434;13.238;2023-02-18T09:13:56;7.00;;;1.20;;
32329;SDS011;18807;52.434;13.238;2023-02-18T09:21:30;5.53;;;1.05;;
32329;SDS011;18807;52.434;13.238;2023-02-18T09:29:05;6.88;;;1.48;;
32329;SDS011;18807;52.434;13.238;2023-02-18T09:36:41;5.47;;;1.20;;
32329;SDS011;18807;52.434;13.238;2023-02-18T09:44:17;7.93;;;1.87;;
32329;SDS011;18807;52.434;13.238;2023-02-18T09:51:55;7.15;;;1.35;;
32329;SDS011;18807;52.434;13.238;2023-02-18T09:59:35;6.35;;;1.40;;
32329;SDS011;18807;52.434;13.238;2023-02-18T10:07:09;6.25;;;1.38;;
32329;SDS011;18807;52.434;13.238;2023-02-18T10:14:54;8.80;;;1.45;;
32329;SDS011;18807;52.434;13.238;2023-02-18T10:22:29;3.90;;;1.40;;
32329;SDS011;18807;52.434;13.238;2023-02-18T10:30:19;4.67;;;1.60;;
32329;SDS011;18807;52.434;13.238;2023-02-18T10:37:57;9.73;;;3.30;;
32329;SDS011;18807;52.434;13.238;2023-02-18T10:45:59;3.63;;;1.73;;
32329;SDS011;18807;52.434;13.238;2023-02-18T10:53:50;3.70;;;1.30;;
32329;SDS011;18807;52.434;13.238;2023-02-18T11:01:26;3.78;;;1.40;;
32329;SDS011;18807;52.434;13.238;2023-02-18T11:09:03;3.47;;;1.75;;
32329;SDS011;18807;52.434;13.238;2023-02-18T11:16:40;5.72;;;2.55;;
32329;SDS011;18807;52.434;13.238;2023-02-18T11:24:16;5.63;;;2.35;;
32329;SDS011;18807;52.434;13.238;2023-02-18T11:31:56;3.78;;;1.52;;
32329;SDS011;18807;52.434;13.238;2023-02-18T11:39:30;3.25;;;1.77;;
32329;SDS011;18807;52.434;13.238;2023-02-18T11:47:16;4.97;;;1.33;;
32329;SDS011;18807;52.434;13.238;2023-02-18T11:55:00;2.45;;;1.60;;
32329;SDS011;18807;52.434;13.238;2023-02-18T12:02:37;3.42;;;1.85;;
32329;SDS011;18807;52.434;13.238;2023-02-18T12:10:14;3.22;;;2.03;;
32329;SDS011;18807;52.434;13.238;2023-02-18T12:18:01;3.88;;;2.28;;
32329;SDS011;18807;52.434;13.238;2023-02-18T12:25:52;5.38;;;2.63;;
32329;SDS011;18807;52.434;13.238;2023-02-18T12:33:38;6.95;;;3.72;;
32329;SDS011;18807;52.434;13.238;2023-02-18T12:41:28;6.68;;;3.05;;
32329;SDS011;18807;52.434;13.238;2023-02-18T12:49:20;5.32;;;3.35;;
32329;SDS011;18807;52.434;13.238;2023-02-18T12:57:21;6.82;;;4.47;;
32329;SDS011;18807;52.434;13.238;2023-02-18T13:05:05;5.43;;;3.67;;
32329;SDS011;18807;52.434;13.238;2023-02-18T13:12:53;7.10;;;3.45;;
32329;SDS011;18807;52.434;13.238;2023-02-18T13:20:34;3.47;;;2.60;;
32329;SDS011;18807;52.434;13.238;2023-02-18T13:28:31;3.58;;;2.30;;
32329;SDS011;18807;52.434;13.238;2023-02-18T13:36:21;3.63;;;2.65;;
32329;SDS011;18807;52.434;13.238;2023-02-18T13:44:06;3.47;;;2.73;;
32329;SDS011;18807;52.434;13.238;2023-02-18T13:51:43;3.67;;;3.08;;
32329;SDS011;18807;52.434;13.238;2023-02-18T13:59:21;3.47;;;2.58;;
32329;SDS011;18807;52.434;13.238;2023-02-18T14:23:43;6.22;;;2.40;;
32329;SDS011;18807;52.434;13.238;2023-02-18T14:31:36;2.88;;;2.33;;
32329;SDS011;18807;52.434;13.238;2023-02-18T14:39:24;6.05;;;2.13;;
32329;SDS011;18807;52.434;13.238;2023-02-18T14:47:18;2.13;;;1.63;;
32329;SDS011;18807;52.434;13.238;2023-02-18T14:55:00;2.50;;;1.50;;
32329;SDS011;18807;52.434;13.238;2023-02-18T15:02:36;2.30;;;1.50;;
32329;SDS011;18807;52.434;13.238;2023-02-18T15:10:16;1.40;;;0.90;;
32329;SDS011;18807;52.434;13.238;2023-02-18T15:17:50;3.03;;;0.98;;
32329;SDS011;18807;52.434;13.238;2023-02-18T15:25:45;1.52;;;0.80;;
32329;SDS011;18807;52.434;13.238;2023-02-18T15:33:22;1.02;;;0.70;;
32329;SDS011;18807;52.434;13.238;2023-02-18T15:40:58;0.93;;;0.83;;
32329;SDS011;18807;52.434;13.238;2023-02-18T15:48:35;1.50;;;1.02;;
32329;SDS011;18807;52.434;13.238;2023-02-18T15:56:19;2.95;;;0.90;;
32329;SDS011;18807;52.434;13.238;2023-02-18T16:03:58;1.67;;;0.73;;
32329;SDS011;18807;52.434;13.238;2023-02-18T16:11:52;1.25;;;0.85;;
32329;SDS011;18807;52.434;13.238;2023-02-18T16:19:31;1.52;;;1.00;;
32329;SDS011;18807;52.434;13.238;2023-02-18T16:27:11;1.05;;;0.98;;
32329;SDS011;18807;52.434;13.238;2023-02-18T16:34:48;1.98;;;0.60;;
32329;SDS011;18807;52.434;13.238;2023-02-18T16:42:23;1.15;;;0.70;;
32329;SDS011;18807;52.434;13.238;2023-02-18T16:49:58;1.38;;;0.73;;
32329;SDS011;18807;52.434;13.238;2023-02-18T16:57:33;1.57;;;0.70;;
32329;SDS011;18807;52.434;13.238;2023-02-18T17:05:07;1.63;;;0.40;;
32329;SDS011;18807;52.434;13.238;2023-02-18T17:12:59;0.85;;;0.65;;
32329;SDS011;18807;52.434;13.238;2023-02-18T17:20:33;1.63;;;0.57;;
32329;SDS011;18807;52.434;13.238;2023-02-18T17:28:08;1.42;;;0.70;;
32329;SDS011;18807;52.434;13.238;2023-02-18T17:35:42;0.88;;;0.85;;
32329;SDS011;18807;52.434;13.238;2023-02-18T17:43:35;5.45;;;1.08;;
32329;SDS011;18807;52.434;13.238;2023-02-18T17:51:11;2.08;;;1.15;;
32329;SDS011;18807;52.434;13.238;2023-02-18T17:58:55;1.55;;;1.08;;
32329;SDS011;18807;52.434;13.238;2023-02-18T18:06:29;1.23;;;1.13;;
32329;SDS011;18807;52.434;13.238;2023-02-18T18:14:09;2.80;;;1.80;;
32329;SDS011;18807;52.434;13.238;2023-02-18T18:21:45;1.58;;;1.45;;
32329;SDS011;18807;52.434;13.238;2023-02-18T18:29:21;2.97;;;1.73;;
32329;SDS011;18807;52.434;13.238;2023-02-18T18:36:55;2.75;;;1.67;;
32329;SDS011;18807;52.434;13.238;2023-02-18T18:44:30;2.37;;;1.40;;
32329;SDS011;18807;52.434;13.238;2023-02-18T18:52:04;1.98;;;1.40;;
32329;SDS011;18807;52.434;13.238;2023-02-18T18:59:40;2.73;;;1.67;;
32329;SDS011;18807;52.434;13.238;2023-02-18T19:07:14;1.63;;;1.15;;
32329;SDS011;18807;52.434;13.238;2023-02-18T19:14:49;1.87;;;1.27;;
32329;SDS011;18807;52.434;13.238;2023-02-18T19:22:40;2.00;;;1.50;;
32329;SDS011;18807;52.434;13.238;2023-02-18T19:30:17;2.80;;;1.60;;
32329;SDS011;18807;52.434;13.238;2023-02-18T19:37:54;5.13;;;2.25;;
32329;SDS011;18807;52.434;13.238;2023-02-18T19:45:30;3.05;;;1.95;;
32329;SDS011;18807;52.434;13.238;2023-02-18T19:53:04;4.30;;;2.50;;
32329;SDS011;18807;52.434;13.238;2023-02-18T20:00:39;3.73;;;2.20;;
32329;SDS011;18807;52.434;13.238;2023-02-18T20:08:15;3.70;;;2.25;;
32329;SDS011;18807;52.434;13.238;2023-02-18T20:15:50;3.03;;;2.53;;
32329;SDS011;18807;52.434;13.238;2023-02-18T20:23:24;2.95;;;2.33;;
32329;SDS011;18807;52.434;13.238;2023-02-18T20:31:03;6.17;;;3.87;;
32329;SDS011;18807;52.434;13.238;2023-02-18T20:38:38;7.32;;;4.07;;
32329;SDS011;18807;52.434;13.238;2023-02-18T20:46:14;5.97;;;3.57;;
32329;SDS011;18807;52.434;13.238;2023-02-18T20:53:50;7.35;;;4.22;;
32329;SDS011;18807;52.434;13.238;2023-02-18T21:01:25;6.33;;;3.90;;
32329;SDS011;18807;52.434;13.238;2023-02-18T21:09:17;6.82;;;3.42;;
32329;SDS011;18807;52.434;13.238;2023-02-18T21:16:52;7.03;;;3.50;;
32329;SDS011;18807;52.434;13.238;2023-02-18T21:24:26;5.03;;;3.15;;
32329;SDS011;18807;52.434;13.238;2023-02-18T21:32:01;4.43;;;2.20;;
32329;SDS011;18807;52.434;13.238;2023-02-18T21:39:35;5.15;;;2.38;;
32329;SDS011;18807;52.434;13.238;2023-02-18T21:47:11;3.70;;;2.40;;
32329;SDS011;18807;52.434;13.238;2023-02-18T21:54:45;3.63;;;2.50;;
32329;SDS011;18807;52.434;13.238;2023-02-18T22:09:56;3.80;;;2.58;;
32329;SDS011;18807;52.434;13.238;2023-02-18T22:17:32;5.47;;;3.13;;
32329;SDS011;18807;52.434;13.238;2023-02-18T22:25:06;4.70;;;2.83;;
32329;SDS011;18807;52.434;13.238;2023-02-18T22:32:42;4.35;;;2.53;;
32329;SDS011;18807;52.434;13.238;2023-02-18T22:40:16;5.22;;;2.95;;
32329;SDS011;18807;52.434;13.238;2023-02-18T22:47:51;4.63;;;2.57;;
32329;SDS011;18807;52.434;13.238;2023-02-18T22:55:25;6.25;;;3.22;;
32329;SDS011;18807;52.434;13.238;2023-02-18T23:03:01;8.10;;;3.45;;
32329;SDS011;18807;52.434;13.238;2023-02-18T23:10:35;6.43;;;3.30;;
32329;SDS011;18807;52.434;13.238;2023-02-18T23:18:10;6.27;;;3.10;;
32329;SDS011;18807;52.434;13.238;2023-02-18T23:25:44;9.23;;;4.18;;
32329;SDS011;18807;52.434;13.238;2023-02-18T23:33:20;5.82;;;3.45;;
32329;SDS011;18807;52.434;13.238;2023-02-18T23:40:54;6.35;;;3.58;;
32329;SDS011;18807;52.434;13.238;2023-02-18T23:48:29;6.53;;;3.90;;
32329;SDS011;18807;52.434;13.238;2023-02-18T23:56:04;4.65;;;3.17;;
